Leao Marinho — CUHG7 — position and weather

sailwx.info

Track history (hours):
 
Tides and Currents Weather Stations Pressure Air Temp Water Temp Dewpoint Dewpoint Depression Visibility Wind Speed Wind Dir Waves Ship Positions

Leao Marinho

Last reported at 2018-May-17 03:47 UTC. Time now 2018-Jun-21 01:01 UTC.
Position N 39°06' W 009°50'.
Warning: this ship's position is 34 days out of date.

MMSI: 204283000.

Date/timePositionNaut miles runAvg speedWind from/ knotsBaromVisibWave heightAir tempDewpointWater temp
2018-May-17 03:47N 39°06' W 009°50'0 0.0
2018-May-17 02:07N 39°06' W 009°50'0 0.0
2018-May-17 01:54N 39°06' W 009°50'0 0.1
2018-May-17 01:10N 39°06' W 009°50'0 0.0
2018-May-17 01:00N 39°06' W 009°50'0 0.0
2018-May-16 22:31N 39°06' W 009°50'0 0.1
2018-May-16 22:30N 39°06' W 009°50'0 0.0
2018-May-16 21:56N 39°06' W 009°50'  
2018-May-11 05:17N 39°06' W 009°47'0 0.0
2018-May-11 04:59N 39°06' W 009°47'0 0.0
2018-May-11 04:30N 39°06' W 009°47'0 0.0
2018-May-11 03:57N 39°06' W 009°47'0 0.0
2018-May-11 03:26N 39°06' W 009°47'0 0.0
2018-May-11 02:59N 39°06' W 009°47'0 0.0
2018-May-11 02:30N 39°06' W 009°47'0 0.0
2018-May-11 01:56N 39°06' W 009°47'0 0.0
2018-May-11 01:30N 39°06' W 009°47'0 0.0
2018-May-11 01:00N 39°06' W 009°47'0 0.0
2018-May-11 00:24N 39°06' W 009°47'0 0.1
2018-May-10 23:59N 39°06' W 009°47'0 0.0
2018-May-10 23:24N 39°06' W 009°47'0 0.0
2018-May-10 22:57N 39°06' W 009°47'0 0.0
2018-May-10 22:22N 39°06' W 009°47'  
2018-May-07 21:53N 39°10' W 009°49'0 0.0
2018-May-07 21:10N 39°10' W 009°49'0 0.0
2018-May-07 20:51N 39°10' W 009°49'0 0.0
2018-May-07 20:19N 39°10' W 009°49'6 0.5
2018-May-07 09:03N 39°07' W 009°56'0 0.8
2018-May-07 08:59N 39°07' W 009°56'1 0.6
2018-May-07 06:32N 39°06' W 009°55'0 0.6
2018-May-07 06:13N 39°06' W 009°55'0 0.0
2018-May-07 05:27N 39°06' W 009°55'0 0.0
2018-May-07 05:01N 39°06' W 009°55'0 0.0
2018-May-07 04:29N 39°06' W 009°55'  
Track history (hours):
 
Tides and Currents Weather Stations Pressure Air Temp Water Temp Dewpoint Dewpoint Depression Visibility Wind Speed Wind Dir Waves Ship Positions

Leao Marinho

Last reported at 2018-May-17 03:47 UTC. Time now 2018-Jun-21 01:01 UTC.
Position N 39°06' W 009°50'.
Warning: this ship's position is 34 days out of date.

MMSI: 204283000.

Date/timePositionNaut miles runAvg speedWind from/ knotsBaromVisibWave heightAir tempDewpointWater temp
2018-May-17 03:47N 39°06' W 009°50'0 0.0
2018-May-17 02:07N 39°06' W 009°50'0 0.0
2018-May-17 01:54N 39°06' W 009°50'0 0.1
2018-May-17 01:10N 39°06' W 009°50'0 0.0
2018-May-17 01:00N 39°06' W 009°50'0 0.0
2018-May-16 22:31N 39°06' W 009°50'0 0.1
2018-May-16 22:30N 39°06' W 009°50'0 0.0
2018-May-16 21:56N 39°06' W 009°50'  
2018-May-11 05:17N 39°06' W 009°47'0 0.0
2018-May-11 04:59N 39°06' W 009°47'0 0.0
2018-May-11 04:30N 39°06' W 009°47'0 0.0
2018-May-11 03:57N 39°06' W 009°47'0 0.0
2018-May-11 03:26N 39°06' W 009°47'0 0.0
2018-May-11 02:59N 39°06' W 009°47'0 0.0
2018-May-11 02:30N 39°06' W 009°47'0 0.0
2018-May-11 01:56N 39°06' W 009°47'0 0.0
2018-May-11 01:30N 39°06' W 009°47'0 0.0
2018-May-11 01:00N 39°06' W 009°47'0 0.0
2018-May-11 00:24N 39°06' W 009°47'0 0.1
2018-May-10 23:59N 39°06' W 009°47'0 0.0
2018-May-10 23:24N 39°06' W 009°47'0 0.0
2018-May-10 22:57N 39°06' W 009°47'0 0.0
2018-May-10 22:22N 39°06' W 009°47'  
2018-May-07 21:53N 39°10' W 009°49'0 0.0
2018-May-07 21:10N 39°10' W 009°49'0 0.0
2018-May-07 20:51N 39°10' W 009°49'0 0.0
2018-May-07 20:19N 39°10' W 009°49'6 0.5
2018-May-07 09:03N 39°07' W 009°56'0 0.8
2018-May-07 08:59N 39°07' W 009°56'1 0.6
2018-May-07 06:32N 39°06' W 009°55'0 0.6
2018-May-07 06:13N 39°06' W 009°55'0 0.0
2018-May-07 05:27N 39°06' W 009°55'0 0.0
2018-May-07 05:01N 39°06' W 009°55'0 0.0
2018-May-07 04:29N 39°06' W 009°55'  

Dump ship's entire track history